Time;durP1;ratioP1;P1;durP2;ratioP2;P2;SDS_P1;SDS_P2;PMS_P1;PMS_P2;Temp;Humidity;BMP_temperature;BMP_pressure;BME280_temperature;BME280_humidity;BME280_pressure;Samples;Min_cycle;Max_cycle;Signal;HPM_P1;HPM_P2
2022/06/12 00:00:01;;;;;;;;;;;21.80;99.90;;;;;;5106884;28;19908;-72
2022/06/12 00:02:27;;;;;;;;;;;22.00;99.90;;;;;;5108645;28;19907;-71
2022/06/12 00:04:52;;;;;;;;;;;22.10;99.90;;;;;;5108956;28;19930;-71
2022/06/12 00:07:18;;;;;;;;;;;22.10;99.90;;;;;;5110096;28;19918;-71
2022/06/12 00:09:44;;;;;;;;;;;22.20;99.90;;;;;;5107652;28;19908;-73
2022/06/12 00:12:10;;;;;;;;;;;22.00;99.90;;;;;;5103757;28;19961;-73
2022/06/12 00:14:35;;;;;;;;;;;21.90;99.90;;;;;;5104637;28;20008;-73
2022/06/12 00:17:01;;;;;;;;;;;21.90;99.90;;;;;;5111977;28;19915;-72
2022/06/12 00:19:30;;;;;;;;;;;21.90;99.90;;;;;;5106601;28;19911;-72
2022/06/12 00:21:56;;;;;;;;;;;21.70;99.90;;;;;;5110703;28;20354;-72
2022/06/12 00:24:22;;;;;;;;;;;21.80;99.90;;;;;;5108091;28;19908;-71
2022/06/12 00:26:50;;;;;;;;;;;21.70;99.90;;;;;;5110699;28;19911;-72
2022/06/12 00:29:20;;;;;;;;;;;21.70;99.90;;;;;;5099695;28;19999;-73
2022/06/12 00:31:51;;;;;;;;;;;21.80;99.90;;;;;;5108815;28;19908;-72
2022/06/12 00:34:18;;;;;;;;;;;21.80;99.90;;;;;;5101785;28;19919;-72
2022/06/12 00:36:44;;;;;;;;;;;22.00;99.90;;;;;;5106845;28;19908;-73
2022/06/12 00:39:10;;;;;;;;;;;22.10;99.90;;;;;;5103072;28;19942;-71
2022/06/12 00:41:36;;;;;;;;;;;21.80;99.90;;;;;;5108966;28;20522;-72
2022/06/12 00:44:03;;;;;;;;;;;21.70;99.90;;;;;;5108843;28;19912;-73
2022/06/12 00:46:37;;;;;;;;;;;21.80;99.90;;;;;;5107121;28;19912;-72
2022/06/12 00:49:21;;;;;;;;;;;22.00;99.90;;;;;;5109465;28;19968;-71
2022/06/12 00:51:48;;;;;;;;;;;21.90;99.90;;;;;;5108603;28;19911;-72
2022/06/12 00:54:13;;;;;;;;;;;21.60;99.90;;;;;;5108191;28;19911;-72
2022/06/12 00:56:43;;;;;;;;;;;21.40;99.90;;;;;;5107499;28;19932;-72
2022/06/12 00:59:11;;;;;;;;;;;21.50;99.90;;;;;;5102544;28;20056;-72
2022/06/12 01:01:39;;;;;;;;;;;21.70;99.90;;;;;;5106330;28;19908;-73
2022/06/12 01:06:50;;;;;;;;;;;21.80;99.90;;;;;;5102097;28;19931;-72
2022/06/12 01:09:19;;;;;;;;;;;21.50;99.90;;;;;;5109462;28;19916;-73
2022/06/12 01:11:46;;;;;;;;;;;21.60;99.90;;;;;;5108607;28;19908;-72
2022/06/12 01:14:14;;;;;;;;;;;21.90;99.90;;;;;;5108218;28;20353;-74
2022/06/12 01:16:49;;;;;;;;;;;21.90;99.90;;;;;;5107880;28;19995;-73
2022/06/12 01:19:38;;;;;;;;;;;21.60;99.90;;;;;;5102037;28;19908;-72
2022/06/12 01:22:09;;;;;;;;;;;21.40;99.90;;;;;;5094655;28;20022;-70
2022/06/12 01:24:47;;;;;;;;;;;21.50;99.90;;;;;;5105864;28;20365;-71
2022/06/12 01:27:32;;;;;;;;;;;21.50;99.90;;;;;;5106557;28;19908;-72
2022/06/12 01:30:11;;;;;;;;;;;21.20;99.90;;;;;;5106591;28;19919;-71
2022/06/12 01:32:49;;;;;;;;;;;21.20;99.90;;;;;;5104347;28;19975;-73
2022/06/12 01:35:32;;;;;;;;;;;21.10;99.90;;;;;;5109858;28;19918;-72
2022/06/12 01:38:01;;;;;;;;;;;21.00;99.90;;;;;;5103961;28;19911;-74
2022/06/12 01:40:38;;;;;;;;;;;21.20;99.90;;;;;;5104457;28;19999;-74
2022/06/12 01:43:25;;;;;;;;;;;21.30;99.90;;;;;;5101758;28;19909;-72
2022/06/12 01:45:53;;;;;;;;;;;21.40;99.90;;;;;;5104961;28;19965;-72
2022/06/12 01:48:26;;;;;;;;;;;21.40;99.90;;;;;;5106949;28;19916;-73
2022/06/12 01:50:52;;;;;;;;;;;21.20;99.90;;;;;;5108571;28;19908;-73
2022/06/12 01:53:26;;;;;;;;;;;21.00;99.90;;;;;;5108955;28;20129;-75
2022/06/12 01:56:06;;;;;;;;;;;20.90;99.90;;;;;;5106868;28;19912;-74
2022/06/12 01:58:31;;;;;;;;;;;20.80;99.90;;;;;;5110188;28;19907;-72
2022/06/12 02:01:05;;;;;;;;;;;20.90;99.90;;;;;;5105383;28;19908;-71
2022/06/12 02:03:30;;;;;;;;;;;21.00;99.90;;;;;;5107762;28;20337;-72
2022/06/12 02:06:00;;;;;;;;;;;21.30;99.90;;;;;;5104244;28;19972;-72
2022/06/12 02:08:52;;;;;;;;;;;21.40;99.90;;;;;;5104447;28;19916;-73
2022/06/12 02:14:07;;;;;;;;;;;21.70;99.90;;;;;;5104584;28;19918;-73
2022/06/12 02:16:35;;;;;;;;;;;21.90;99.90;;;;;;5107516;28;19941;-72
2022/06/12 02:19:04;;;;;;;;;;;22.00;99.90;;;;;;5110438;28;19950;-73
2022/06/12 02:21:37;;;;;;;;;;;21.90;99.90;;;;;;5110222;28;19958;-71
2022/06/12 02:24:08;;;;;;;;;;;21.70;99.90;;;;;;5105909;28;19908;-73
2022/06/12 02:26:46;;;;;;;;;;;21.70;99.90;;;;;;5101238;28;19915;-73
2022/06/12 02:29:19;;;;;;;;;;;21.40;99.90;;;;;;5105780;28;20550;-71
2022/06/12 02:31:46;;;;;;;;;;;21.20;99.90;;;;;;5107823;28;20474;-72
2022/06/12 02:34:15;;;;;;;;;;;21.20;99.90;;;;;;5103373;28;19969;-72
2022/06/12 02:36:45;;;;;;;;;;;21.50;99.90;;;;;;5110623;28;20227;-72
2022/06/12 02:39:17;;;;;;;;;;;21.60;99.90;;;;;;5105780;28;19908;-72
2022/06/12 02:41:47;;;;;;;;;;;21.30;99.90;;;;;;5106750;28;19908;-72
2022/06/12 02:44:20;;;;;;;;;;;21.00;99.90;;;;;;5107168;28;19915;-73
2022/06/12 02:46:47;;;;;;;;;;;20.80;99.90;;;;;;5104682;28;19908;-73
2022/06/12 02:49:13;;;;;;;;;;;20.70;99.90;;;;;;5106602;28;19919;-71
2022/06/12 02:51:42;;;;;;;;;;;20.60;99.90;;;;;;5111202;28;19904;-70
2022/06/12 02:54:26;;;;;;;;;;;20.60;99.90;;;;;;5109457;28;19934;-71
2022/06/12 02:56:52;;;;;;;;;;;20.50;99.90;;;;;;5107522;28;19990;-71
2022/06/12 02:59:28;;;;;;;;;;;20.50;99.90;;;;;;5106547;28;19999;-73
2022/06/12 03:02:01;;;;;;;;;;;20.40;99.90;;;;;;5105688;28;19916;-72
2022/06/12 03:04:33;;;;;;;;;;;20.30;99.90;;;;;;5102703;28;19971;-72
2022/06/12 03:06:59;;;;;;;;;;;20.30;99.90;;;;;;5105050;28;19907;-73
2022/06/12 03:09:24;;;;;;;;;;;20.30;99.90;;;;;;5110098;28;19908;-73
2022/06/12 03:11:50;;;;;;;;;;;20.50;99.90;;;;;;5113335;28;19999;-73
2022/06/12 03:14:19;;;;;;;;;;;21.00;99.90;;;;;;5109734;28;19986;-75
2022/06/12 03:16:44;;;;;;;;;;;21.30;99.90;;;;;;5114391;28;20430;-73
2022/06/12 03:19:12;;;;;;;;;;;21.50;99.90;;;;;;5115869;28;19907;-74
2022/06/12 03:21:41;;;;;;;;;;;21.60;99.90;;;;;;5116906;28;19944;-71
2022/06/12 03:24:07;;;;;;;;;;;21.70;99.90;;;;;;5114077;28;19994;-72
2022/06/12 03:26:48;;;;;;;;;;;21.80;99.90;;;;;;5114257;28;19946;-74
2022/06/12 03:29:23;;;;;;;;;;;21.50;99.90;;;;;;5109932;28;19953;-72
2022/06/12 03:32:00;;;;;;;;;;;21.30;99.90;;;;;;5113933;28;19908;-72
2022/06/12 03:34:45;;;;;;;;;;;21.10;99.90;;;;;;5113273;28;19912;-72
2022/06/12 03:37:21;;;;;;;;;;;21.30;99.90;;;;;;5111046;28;20331;-74
2022/06/12 03:39:57;;;;;;;;;;;21.60;99.90;;;;;;5114534;28;19919;-73
2022/06/12 03:42:22;;;;;;;;;;;21.40;99.90;;;;;;5124872;28;19911;-74
2022/06/12 03:44:56;;;;;;;;;;;21.20;99.90;;;;;;5127133;28;19942;-73
2022/06/12 03:47:24;;;;;;;;;;;21.00;99.90;;;;;;5126044;28;19908;-74
2022/06/12 03:49:50;;;;;;;;;;;21.00;99.90;;;;;;5129052;28;19916;-74
2022/06/12 03:52:25;;;;;;;;;;;20.90;99.90;;;;;;5121890;28;19911;-71
2022/06/12 03:54:51;;;;;;;;;;;20.90;99.90;;;;;;5120649;28;19971;-72
2022/06/12 04:00:09;;;;;;;;;;;20.80;99.90;;;;;;5123015;28;19969;-71
2022/06/12 04:02:38;;;;;;;;;;;21.00;99.90;;;;;;5106648;28;20057;-72
2022/06/12 04:05:06;;;;;;;;;;;21.10;99.90;;;;;;5106986;28;20344;-71
2022/06/12 04:07:43;;;;;;;;;;;21.30;99.90;;;;;;5109216;28;19930;-71
2022/06/12 04:10:13;;;;;;;;;;;21.30;99.90;;;;;;5108678;28;20397;-71
2022/06/12 04:12:39;;;;;;;;;;;21.40;99.90;;;;;;5109673;28;20288;-71
2022/06/12 04:15:08;;;;;;;;;;;21.40;99.90;;;;;;5110299;28;19918;-70
2022/06/12 04:17:34;;;;;;;;;;;21.60;99.90;;;;;;5108962;28;19968;-71
2022/06/12 04:20:00;;;;;;;;;;;21.60;99.90;;;;;;5108830;28;19912;-71
2022/06/12 04:22:32;;;;;;;;;;;21.60;99.90;;;;;;5107574;28;19967;-71
2022/06/12 04:25:01;;;;;;;;;;;21.70;99.90;;;;;;5108189;28;20450;-72
2022/06/12 04:27:29;;;;;;;;;;;21.70;99.90;;;;;;5105131;28;19916;-72
2022/06/12 04:30:00;;;;;;;;;;;21.70;99.90;;;;;;5109253;28;19907;-72
2022/06/12 04:32:30;;;;;;;;;;;21.90;99.90;;;;;;5110200;28;20002;-71
2022/06/12 04:34:57;;;;;;;;;;;22.00;99.90;;;;;;5108477;28;19912;-72
2022/06/12 04:37:24;;;;;;;;;;;22.10;99.90;;;;;;5111187;28;19911;-73
2022/06/12 04:39:50;;;;;;;;;;;22.10;99.90;;;;;;5108683;28;19980;-71
2022/06/12 04:42:16;;;;;;;;;;;22.20;99.90;;;;;;5108637;28;20006;-71
2022/06/12 04:44:42;;;;;;;;;;;22.30;99.90;;;;;;5098531;28;20386;-71
2022/06/12 04:47:11;;;;;;;;;;;22.30;99.90;;;;;;5105235;28;20023;-70
2022/06/12 04:49:37;;;;;;;;;;;22.30;99.90;;;;;;5106953;28;19914;-71
2022/06/12 04:52:04;;;;;;;;;;;22.40;99.90;;;;;;5107358;28;19907;-71
2022/06/12 04:54:30;;;;;;;;;;;22.40;99.90;;;;;;5111087;28;19915;-71
2022/06/12 04:56:56;;;;;;;;;;;22.50;99.90;;;;;;5107843;28;19907;-71
2022/06/12 04:59:22;;;;;;;;;;;22.70;99.90;;;;;;5107696;28;19903;-71
2022/06/12 05:01:48;;;;;;;;;;;22.80;99.90;;;;;;5106208;28;19919;-70
2022/06/12 05:04:14;;;;;;;;;;;22.80;99.90;;;;;;5107014;28;19915;-71
2022/06/12 05:06:40;;;;;;;;;;;22.90;99.90;;;;;;5101904;28;19904;-71
2022/06/12 05:09:07;;;;;;;;;;;23.10;99.90;;;;;;5106456;28;19907;-70
2022/06/12 05:11:33;;;;;;;;;;;23.40;99.90;;;;;;5109920;28;19911;-72
2022/06/12 05:13:59;;;;;;;;;;;23.50;99.90;;;;;;5108778;28;19916;-72
2022/06/12 05:16:24;;;;;;;;;;;23.50;99.90;;;;;;5107226;28;19908;-71
2022/06/12 05:18:50;;;;;;;;;;;23.40;99.90;;;;;;5107973;28;19934;-71
2022/06/12 05:21:15;;;;;;;;;;;23.60;99.90;;;;;;5110293;28;20403;-72
2022/06/12 05:23:41;;;;;;;;;;;23.60;99.90;;;;;;5105289;28;20281;-72
2022/06/12 05:26:08;;;;;;;;;;;23.60;99.90;;;;;;5111317;28;20374;-72
2022/06/12 05:28:34;;;;;;;;;;;23.60;99.90;;;;;;5105583;28;20273;-72
2022/06/12 05:30:59;;;;;;;;;;;23.70;99.90;;;;;;5111270;28;19904;-72
2022/06/12 05:33:25;;;;;;;;;;;23.80;99.90;;;;;;5108262;28;19911;-72
2022/06/12 05:35:51;;;;;;;;;;;24.00;99.90;;;;;;5103514;28;19930;-72
2022/06/12 05:38:17;;;;;;;;;;;24.00;99.90;;;;;;5108787;28;19908;-71
2022/06/12 05:40:42;;;;;;;;;;;24.00;99.90;;;;;;5114574;28;19908;-71
2022/06/12 05:43:08;;;;;;;;;;;24.10;99.90;;;;;;5114402;28;20360;-71
2022/06/12 05:45:34;;;;;;;;;;;24.10;99.90;;;;;;5118365;28;20361;-72
2022/06/12 05:48:11;;;;;;;;;;;24.20;99.90;;;;;;5113833;28;19994;-70
2022/06/12 05:50:43;;;;;;;;;;;24.20;99.90;;;;;;5106920;28;20386;-72
2022/06/12 05:53:09;;;;;;;;;;;24.30;99.90;;;;;;5108250;28;20002;-71
2022/06/12 05:55:35;;;;;;;;;;;24.40;99.90;;;;;;5092815;28;19924;-71
2022/06/12 05:58:01;;;;;;;;;;;24.40;99.90;;;;;;5108394;28;19985;-71
2022/06/12 06:00:28;;;;;;;;;;;24.40;99.90;;;;;;5106908;28;19994;-70
2022/06/12 06:02:53;;;;;;;;;;;24.50;99.90;;;;;;5108481;28;19922;-71
2022/06/12 06:05:19;;;;;;;;;;;24.60;99.90;;;;;;5108756;28;19908;-71
2022/06/12 06:07:44;;;;;;;;;;;24.60;99.90;;;;;;5097428;28;19915;-72
2022/06/12 06:10:13;;;;;;;;;;;24.70;99.90;;;;;;5101622;28;19907;-71
2022/06/12 06:12:39;;;;;;;;;;;24.70;99.90;;;;;;5104547;28;19923;-72
2022/06/12 06:15:06;;;;;;;;;;;24.80;99.90;;;;;;5110040;28;19908;-70
2022/06/12 06:17:32;;;;;;;;;;;24.80;99.90;;;;;;5110624;28;19904;-69
2022/06/12 06:19:57;;;;;;;;;;;24.80;99.90;;;;;;5102344;28;20274;-71
2022/06/12 06:22:23;;;;;;;;;;;25.00;99.90;;;;;;5108949;28;19903;-72
2022/06/12 06:24:49;;;;;;;;;;;25.00;99.90;;;;;;5106240;28;19995;-69
2022/06/12 06:27:15;;;;;;;;;;;25.10;99.90;;;;;;5110924;28;19904;-69
2022/06/12 06:29:41;;;;;;;;;;;25.10;99.90;;;;;;5110552;28;19938;-70
2022/06/12 06:32:08;;;;;;;;;;;25.20;99.90;;;;;;5107613;28;19947;-69
2022/06/12 06:34:36;;;;;;;;;;;25.10;99.90;;;;;;5105286;28;19912;-71
2022/06/12 06:37:03;;;;;;;;;;;25.10;99.90;;;;;;5108561;28;19915;-71
2022/06/12 06:39:29;;;;;;;;;;;25.20;99.90;;;;;;5112337;28;19912;-71
2022/06/12 06:41:54;;;;;;;;;;;25.20;99.90;;;;;;5110799;28;20350;-72
2022/06/12 06:47:07;;;;;;;;;;;25.30;99.90;;;;;;5111467;28;19948;-71
2022/06/12 06:49:33;;;;;;;;;;;25.10;99.90;;;;;;5109525;28;19932;-71
2022/06/12 06:51:59;;;;;;;;;;;25.20;99.90;;;;;;5109831;28;19907;-73
2022/06/12 06:54:25;;;;;;;;;;;25.30;99.90;;;;;;5105910;28;19912;-70
2022/06/12 06:56:51;;;;;;;;;;;25.30;99.90;;;;;;5111001;28;20305;-71
2022/06/12 06:59:17;;;;;;;;;;;25.20;99.90;;;;;;5114062;28;19904;-72
2022/06/12 07:01:42;;;;;;;;;;;25.30;99.90;;;;;;5112070;28;19908;-70
2022/06/12 07:04:08;;;;;;;;;;;25.30;99.90;;;;;;5111888;28;19912;-71
2022/06/12 07:06:34;;;;;;;;;;;25.30;99.90;;;;;;5109387;28;19915;-70
2022/06/12 07:09:00;;;;;;;;;;;25.10;99.90;;;;;;5115846;28;19911;-73
2022/06/12 07:11:26;;;;;;;;;;;24.80;99.90;;;;;;5109671;28;19996;-71
2022/06/12 07:13:53;;;;;;;;;;;24.60;99.90;;;;;;5110714;28;19915;-70
2022/06/12 07:16:19;;;;;;;;;;;24.50;99.90;;;;;;5109337;28;19995;-71
2022/06/12 07:18:45;;;;;;;;;;;24.40;99.90;;;;;;5112049;28;19953;-71
2022/06/12 07:21:10;;;;;;;;;;;24.40;99.90;;;;;;5112386;28;20287;-71
2022/06/12 07:23:36;;;;;;;;;;;24.40;99.90;;;;;;5110370;28;20422;-71
2022/06/12 07:26:04;;;;;;;;;;;24.30;99.90;;;;;;5112927;28;19953;-73
2022/06/12 07:28:30;;;;;;;;;;;24.40;99.90;;;;;;5111137;28;19954;-71
2022/06/12 07:30:56;;;;;;;;;;;24.50;99.90;;;;;;5109159;28;20254;-71
2022/06/12 07:33:22;;;;;;;;;;;24.50;99.90;;;;;;5107332;28;19930;-70
2022/06/12 07:35:48;;;;;;;;;;;24.40;99.90;;;;;;5097127;28;20282;-70
2022/06/12 07:38:15;;;;;;;;;;;24.40;99.90;;;;;;5107074;28;20022;-70
2022/06/12 07:40:44;;;;;;;;;;;24.40;99.90;;;;;;5107126;28;19908;-71
2022/06/12 07:43:10;;;;;;;;;;;24.50;99.90;;;;;;5110395;28;19908;-71
2022/06/12 07:45:37;;;;;;;;;;;24.60;99.90;;;;;;5106684;28;20278;-72
2022/06/12 07:48:03;;;;;;;;;;;24.60;99.90;;;;;;5109732;28;20006;-71
2022/06/12 07:50:29;;;;;;;;;;;24.60;99.90;;;;;;5111646;28;20334;-71
2022/06/12 07:52:55;;;;;;;;;;;24.60;99.90;;;;;;5111384;28;19973;-70
2022/06/12 07:55:21;;;;;;;;;;;24.70;99.90;;;;;;5108263;28;20048;-70
2022/06/12 07:57:47;;;;;;;;;;;24.90;99.90;;;;;;5108575;28;19908;-71
2022/06/12 08:00:13;;;;;;;;;;;25.00;99.90;;;;;;5112691;27;20303;-70
2022/06/12 08:02:40;;;;;;;;;;;25.10;99.90;;;;;;5110345;28;19904;-71
2022/06/12 08:05:06;;;;;;;;;;;25.20;99.90;;;;;;5111576;28;19908;-71
2022/06/12 08:07:31;;;;;;;;;;;25.10;99.90;;;;;;5106381;28;19908;-70
2022/06/12 08:09:57;;;;;;;;;;;25.10;99.90;;;;;;5105505;28;19939;-67
2022/06/12 08:12:23;;;;;;;;;;;25.00;99.90;;;;;;5109637;28;19911;-66
2022/06/12 08:14:48;;;;;;;;;;;24.80;99.90;;;;;;5105406;27;19923;-67
2022/06/12 08:17:14;;;;;;;;;;;24.70;99.90;;;;;;5111989;28;19908;-67
2022/06/12 08:22:24;;;;;;;;;;;24.70;99.90;;;;;;5111693;28;19952;-66
2022/06/12 08:24:50;;;;;;;;;;;24.60;99.90;;;;;;5108587;28;19907;-65
2022/06/12 08:27:15;;;;;;;;;;;24.60;99.90;;;;;;5110223;28;19957;-67
2022/06/12 08:29:41;;;;;;;;;;;24.80;99.90;;;;;;5106112;28;19907;-66
2022/06/12 08:32:11;;;;;;;;;;;24.90;99.90;;;;;;5103218;28;19907;-65
2022/06/12 08:34:38;;;;;;;;;;;24.80;99.90;;;;;;5118715;28;19915;-65
2022/06/12 08:37:07;;;;;;;;;;;24.80;99.90;;;;;;5105736;28;19969;-69
2022/06/12 08:39:33;;;;;;;;;;;24.80;99.90;;;;;;5107165;28;19931;-66
2022/06/12 08:42:08;;;;;;;;;;;24.80;99.90;;;;;;5114111;28;19915;-70
2022/06/12 08:44:48;;;;;;;;;;;24.80;99.90;;;;;;5116183;28;20318;-67
2022/06/12 08:47:13;;;;;;;;;;;24.90;99.90;;;;;;5111715;28;20377;-67
2022/06/12 08:49:53;;;;;;;;;;;24.90;99.90;;;;;;5114859;28;19908;-69
2022/06/12 08:52:21;;;;;;;;;;;25.00;99.90;;;;;;5115378;28;19915;-67
2022/06/12 08:54:53;;;;;;;;;;;25.20;99.90;;;;;;5115596;28;19954;-68
2022/06/12 08:57:22;;;;;;;;;;;25.20;99.90;;;;;;5116066;28;19908;-67
2022/06/12 09:00:09;;;;;;;;;;;25.00;99.90;;;;;;5114181;28;19979;-67
2022/06/12 09:02:36;;;;;;;;;;;25.00;99.90;;;;;;5116221;28;19908;-67
2022/06/12 09:05:03;;;;;;;;;;;25.20;99.90;;;;;;5118498;28;19910;-68
2022/06/12 09:07:42;;;;;;;;;;;25.10;99.90;;;;;;5116089;28;20372;-68
2022/06/12 09:10:31;;;;;;;;;;;25.00;99.90;;;;;;5108108;28;19910;-68
2022/06/12 09:13:04;;;;;;;;;;;25.00;99.90;;;;;;5103150;28;19955;-69
2022/06/12 09:15:39;;;;;;;;;;;25.10;99.90;;;;;;5109488;28;19975;-68
2022/06/12 09:18:10;;;;;;;;;;;25.10;99.90;;;;;;5111532;28;20354;-68
2022/06/12 09:20:36;;;;;;;;;;;25.10;99.90;;;;;;5115200;28;19908;-67
2022/06/12 09:23:08;;;;;;;;;;;25.20;99.90;;;;;;5117179;28;20526;-68
2022/06/12 09:25:36;;;;;;;;;;;25.30;99.90;;;;;;5115784;28;19911;-67
2022/06/12 09:28:05;;;;;;;;;;;25.40;99.90;;;;;;5107994;28;19939;-68
2022/06/12 09:30:37;;;;;;;;;;;25.50;99.90;;;;;;5102108;28;20012;-67
2022/06/12 09:33:16;;;;;;;;;;;25.60;99.90;;;;;;5110267;28;19985;-66
2022/06/12 09:35:52;;;;;;;;;;;25.50;99.90;;;;;;5081858;28;19912;-67
2022/06/12 09:38:24;;;;;;;;;;;25.60;99.90;;;;;;5099936;28;19993;-67
2022/06/12 09:41:09;;;;;;;;;;;25.70;99.90;;;;;;5103088;28;19994;-67
2022/06/12 09:43:40;;;;;;;;;;;25.80;99.90;;;;;;5103753;28;19908;-66
2022/06/12 09:46:06;;;;;;;;;;;25.90;99.90;;;;;;5105408;27;19955;-65
2022/06/12 09:48:50;;;;;;;;;;;25.90;99.90;;;;;;5102443;28;20339;-66
2022/06/12 09:51:22;;;;;;;;;;;26.10;99.90;;;;;;5103200;28;19907;-66
2022/06/12 09:53:50;;;;;;;;;;;26.10;99.90;;;;;;5102690;28;20381;-67
2022/06/12 09:56:33;;;;;;;;;;;26.30;99.90;;;;;;5102067;28;20407;-67
2022/06/12 09:58:59;;;;;;;;;;;26.30;99.90;;;;;;5110005;28;20255;-67
2022/06/12 10:01:27;;;;;;;;;;;26.20;99.90;;;;;;5110226;28;19964;-66
2022/06/12 10:04:21;;;;;;;;;;;26.10;99.90;;;;;;5110635;28;19911;-64
2022/06/12 10:06:53;;;;;;;;;;;26.10;99.90;;;;;;5039611;28;19970;-67
2022/06/12 10:09:24;;;;;;;;;;;26.30;99.90;;;;;;5108783;28;19908;-67
2022/06/12 10:11:54;;;;;;;;;;;26.30;99.90;;;;;;5104355;28;20010;-65
2022/06/12 10:14:25;;;;;;;;;;;26.30;99.90;;;;;;5109943;28;19908;-66
2022/06/12 10:16:53;;;;;;;;;;;26.30;99.90;;;;;;5110355;28;19910;-65
2022/06/12 10:19:32;;;;;;;;;;;26.30;99.90;;;;;;5104709;28;19908;-67
2022/06/12 10:22:00;;;;;;;;;;;26.30;99.90;;;;;;5107312;28;19911;-67
2022/06/12 10:24:25;;;;;;;;;;;26.30;99.90;;;;;;5110056;28;19990;-67
2022/06/12 10:26:57;;;;;;;;;;;26.30;99.90;;;;;;5110376;28;20576;-67
2022/06/12 10:29:24;;;;;;;;;;;26.30;99.90;;;;;;5110019;28;19907;-66
2022/06/12 10:32:04;;;;;;;;;;;26.30;99.90;;;;;;5110293;28;19912;-66
2022/06/12 10:34:32;;;;;;;;;;;26.30;99.90;;;;;;5117189;27;19926;-67
2022/06/12 10:37:17;;;;;;;;;;;26.40;99.90;;;;;;5111549;27;19908;-67
2022/06/12 10:39:43;;;;;;;;;;;26.70;99.90;;;;;;5107560;28;19990;-67
2022/06/12 10:42:27;;;;;;;;;;;26.80;99.90;;;;;;5103754;28;19916;-66
2022/06/12 10:44:54;;;;;;;;;;;26.80;99.90;;;;;;5105500;28;20300;-66
2022/06/12 10:47:27;;;;;;;;;;;26.90;99.90;;;;;;5109810;28;20288;-66
2022/06/12 10:50:13;;;;;;;;;;;27.00;99.90;;;;;;5108117;28;19976;-66
2022/06/12 10:52:50;;;;;;;;;;;27.10;99.90;;;;;;5104676;28;19918;-67
2022/06/12 10:55:15;;;;;;;;;;;27.00;99.90;;;;;;5107148;28;20008;-67
2022/06/12 10:57:50;;;;;;;;;;;27.00;99.90;;;;;;5103487;28;20037;-66
2022/06/12 11:00:21;;;;;;;;;;;26.90;99.90;;;;;;5109630;28;20369;-66
2022/06/12 11:02:49;;;;;;;;;;;27.00;99.90;;;;;;5109640;28;19904;-66
2022/06/12 11:05:18;;;;;;;;;;;26.90;99.90;;;;;;5108954;28;19915;-67
2022/06/12 11:07:46;;;;;;;;;;;26.70;99.90;;;;;;5109497;28;19926;-66
2022/06/12 11:10:15;;;;;;;;;;;26.60;99.90;;;;;;5109390;28;19908;-67
2022/06/12 11:12:53;;;;;;;;;;;26.70;99.90;;;;;;5110893;28;19948;-66
2022/06/12 11:15:21;;;;;;;;;;;26.70;99.90;;;;;;5109737;28;19918;-66
2022/06/12 11:18:06;;;;;;;;;;;26.70;99.90;;;;;;5105534;28;20389;-68
2022/06/12 11:20:39;;;;;;;;;;;26.80;99.90;;;;;;5109693;28;20366;-66
2022/06/12 11:23:34;;;;;;;;;;;26.80;99.90;;;;;;5103895;28;20361;-66
2022/06/12 11:25:59;;;;;;;;;;;26.70;99.90;;;;;;5040967;28;20425;-67
2022/06/12 11:28:44;;;;;;;;;;;26.80;99.90;;;;;;5110426;28;19911;-67
2022/06/12 11:31:10;;;;;;;;;;;26.70;99.90;;;;;;5109169;28;19912;-65
2022/06/12 11:33:54;;;;;;;;;;;26.60;99.90;;;;;;5108971;28;19912;-67
2022/06/12 11:36:24;;;;;;;;;;;26.60;99.90;;;;;;5109278;28;20006;-66
2022/06/12 11:38:50;;;;;;;;;;;26.50;99.90;;;;;;5107262;28;20350;-67
2022/06/12 11:41:31;;;;;;;;;;;26.50;99.90;;;;;;5102222;28;19926;-67
2022/06/12 11:44:15;;;;;;;;;;;26.50;99.90;;;;;;5107661;28;19999;-65
2022/06/12 11:46:59;;;;;;;;;;;26.50;99.90;;;;;;5104633;28;19918;-68
2022/06/12 11:49:25;;;;;;;;;;;26.50;99.90;;;;;;5104438;28;19908;-66
2022/06/12 11:51:59;;;;;;;;;;;26.70;99.90;;;;;;5099521;28;19908;-68
2022/06/12 11:54:26;;;;;;;;;;;26.60;99.90;;;;;;5106352;28;20005;-68
2022/06/12 11:57:21;;;;;;;;;;;26.60;99.90;;;;;;5109969;28;19907;-66
2022/06/12 12:00:02;;;;;;;;;;;26.60;99.90;;;;;;5097335;28;20045;-68
2022/06/12 12:02:36;;;;;;;;;;;26.80;99.90;;;;;;5112726;28;20002;-67
2022/06/12 12:05:18;;;;;;;;;;;26.70;99.90;;;;;;5105621;28;19908;-65
2022/06/12 12:08:09;;;;;;;;;;;26.70;99.90;;;;;;5112368;28;19915;-67
2022/06/12 12:10:34;;;;;;;;;;;26.70;99.90;;;;;;5109850;28;19930;-68
2022/06/12 12:13:02;;;;;;;;;;;26.90;99.90;;;;;;5113524;28;19963;-66
2022/06/12 12:15:38;;;;;;;;;;;26.80;99.90;;;;;;5107914;28;20389;-67
2022/06/12 12:18:05;;;;;;;;;;;26.80;99.90;;;;;;5112335;28;19934;-66
2022/06/12 12:20:35;;;;;;;;;;;26.90;99.90;;;;;;5111507;28;19915;-67
2022/06/12 12:23:11;;;;;;;;;;;26.80;99.90;;;;;;5106301;28;19994;-68
2022/06/12 12:25:36;;;;;;;;;;;26.60;99.90;;;;;;5108384;28;19908;-67
2022/06/12 12:28:10;;;;;;;;;;;26.40;99.90;;;;;;5110432;28;19915;-64
2022/06/12 12:30:39;;;;;;;;;;;26.40;99.90;;;;;;5106845;28;19912;-66
2022/06/12 12:33:11;;;;;;;;;;;26.60;99.90;;;;;;5111943;28;19918;-68
2022/06/12 12:41:11;;;;;;;;;;;27.40;99.90;;;;;;5109611;28;19949;-68
2022/06/12 12:43:50;;;;;;;;;;;27.50;99.90;;;;;;5110607;28;19908;-65
2022/06/12 12:46:16;;;;;;;;;;;27.80;99.90;;;;;;5105056;28;20290;-68
2022/06/12 12:48:43;;;;;;;;;;;27.90;99.90;;;;;;5112226;28;19946;-67
2022/06/12 12:51:10;;;;;;;;;;;27.80;99.90;;;;;;5110247;28;20271;-67
2022/06/12 12:53:38;;;;;;;;;;;27.70;99.90;;;;;;5108747;28;19948;-66
2022/06/12 12:56:03;;;;;;;;;;;27.80;99.90;;;;;;5111856;28;20487;-66
2022/06/12 12:58:30;;;;;;;;;;;27.80;99.90;;;;;;5111911;28;19961;-68
2022/06/12 13:01:11;;;;;;;;;;;27.80;99.90;;;;;;5109235;28;20046;-68
2022/06/12 13:03:39;;;;;;;;;;;27.70;99.90;;;;;;5108916;28;19911;-70
2022/06/12 13:06:08;;;;;;;;;;;27.30;99.90;;;;;;5111331;28;20006;-68
2022/06/12 13:08:45;;;;;;;;;;;27.30;99.90;;;;;;5105363;28;20392;-67
2022/06/12 13:11:11;;;;;;;;;;;27.10;99.90;;;;;;5107798;28;19911;-68
2022/06/12 13:13:37;;;;;;;;;;;27.00;99.90;;;;;;5109174;28;20020;-68
2022/06/12 13:16:02;;;;;;;;;;;26.90;99.90;;;;;;5108008;28;19920;-67
2022/06/12 13:18:40;;;;;;;;;;;27.00;99.90;;;;;;5112969;28;19991;-64
2022/06/12 13:21:24;;;;;;;;;;;27.10;99.90;;;;;;5111265;28;19915;-69
2022/06/12 13:24:15;;;;;;;;;;;27.30;99.90;;;;;;5108264;28;19954;-66
2022/06/12 13:26:47;;;;;;;;;;;27.40;99.90;;;;;;5111281;28;19939;-66
2022/06/12 13:29:21;;;;;;;;;;;27.40;99.90;;;;;;5112452;28;20293;-67
2022/06/12 13:31:55;;;;;;;;;;;27.50;99.90;;;;;;5112634;28;19915;-68
2022/06/12 13:34:26;;;;;;;;;;;27.60;99.90;;;;;;5113027;28;19919;-66
2022/06/12 13:36:53;;;;;;;;;;;27.40;99.90;;;;;;5109285;28;19915;-66
2022/06/12 13:39:27;;;;;;;;;;;27.60;99.90;;;;;;5109783;28;19973;-67
2022/06/12 13:41:56;;;;;;;;;;;27.50;99.90;;;;;;5107772;28;19916;-66
2022/06/12 13:44:23;;;;;;;;;;;27.60;99.90;;;;;;5107254;28;19915;-67
2022/06/12 13:46:49;;;;;;;;;;;27.60;99.90;;;;;;5107574;28;19956;-68
2022/06/12 13:49:30;;;;;;;;;;;27.70;99.90;;;;;;5107448;28;19987;-67
2022/06/12 13:51:59;;;;;;;;;;;27.80;99.90;;;;;;5106685;28;20409;-68
2022/06/12 13:54:26;;;;;;;;;;;27.70;99.90;;;;;;5109291;28;20404;-67
2022/06/12 13:56:55;;;;;;;;;;;27.30;99.90;;;;;;5109184;28;19960;-67
2022/06/12 13:59:22;;;;;;;;;;;27.30;99.90;;;;;;5105626;28;20034;-68
2022/06/12 14:01:48;;;;;;;;;;;27.20;99.90;;;;;;5104707;28;19915;-69
2022/06/12 14:04:24;;;;;;;;;;;27.20;99.90;;;;;;5111643;28;19904;-65
2022/06/12 14:06:51;;;;;;;;;;;27.30;99.90;;;;;;5110578;28;19912;-67
2022/06/12 14:09:19;;;;;;;;;;;27.40;99.90;;;;;;5108021;28;19908;-67
2022/06/12 14:11:46;;;;;;;;;;;27.40;99.90;;;;;;5107827;28;19981;-68
2022/06/12 14:14:26;;;;;;;;;;;27.30;99.90;;;;;;5108814;28;19915;-68
2022/06/12 14:16:54;;;;;;;;;;;27.30;99.90;;;;;;5109484;28;19910;-67
2022/06/12 14:19:30;;;;;;;;;;;27.50;99.90;;;;;;5109967;28;19990;-67
2022/06/12 14:22:08;;;;;;;;;;;27.50;99.90;;;;;;5105642;28;19957;-67
2022/06/12 14:24:35;;;;;;;;;;;27.60;99.90;;;;;;5105079;28;19908;-67
2022/06/12 14:27:00;;;;;;;;;;;27.60;99.90;;;;;;5109947;28;19907;-67
2022/06/12 14:29:32;;;;;;;;;;;27.70;99.90;;;;;;5105536;28;19908;-68
2022/06/12 14:32:10;;;;;;;;;;;27.70;99.90;;;;;;5107561;28;19907;-66
2022/06/12 14:34:37;;;;;;;;;;;27.60;99.90;;;;;;5106960;28;20262;-67
2022/06/12 14:37:04;;;;;;;;;;;27.60;99.90;;;;;;5093573;28;19994;-67
2022/06/12 14:39:32;;;;;;;;;;;27.40;99.90;;;;;;5107735;28;20002;-66
2022/06/12 14:42:14;;;;;;;;;;;27.60;99.90;;;;;;5104938;28;19904;-67
2022/06/12 14:44:40;;;;;;;;;;;27.60;99.90;;;;;;5104179;28;19923;-67
2022/06/12 14:47:27;;;;;;;;;;;27.50;99.90;;;;;;5109557;27;19907;-67
2022/06/12 14:49:53;;;;;;;;;;;27.60;99.90;;;;;;5109710;28;19916;-70
2022/06/12 14:52:26;;;;;;;;;;;27.60;99.90;;;;;;5103342;28;20915;-67